createdAt,value
2019-02-28T00:10:20.075Z,95517.41
2019-02-28T00:26:03.950Z,95424.58
2019-02-28T01:05:39.193Z,95435.81
2019-02-28T01:18:00.427Z,95614.05
2019-02-28T01:39:06.752Z,95564.83
2019-02-28T02:06:31.310Z,95637.56
2019-02-28T03:41:07.662Z,95309.13
2019-02-28T04:02:22.224Z,95263.25
2019-02-28T04:46:23.826Z,95211.98
2019-02-28T05:59:50.042Z,94958.66
2019-02-28T06:28:06.723Z,95033.29
2019-02-28T06:59:47.545Z,95587.72
2019-02-28T13:35:32.821Z,99298.05
2019-02-28T14:01:46.926Z,97960.47
2019-02-28T14:47:56.975Z,95768.20
2019-02-28T15:05:08.753Z,96177.35
2019-02-28T18:09:51.433Z,93572.58
2019-02-28T18:15:45.940Z,93640.23
2019-02-28T18:36:31.086Z,93537.66
2019-02-28T18:42:55.966Z,93490.25
2019-02-28T18:49:31.116Z,93428.28
2019-02-28T18:52:40.053Z,93353.12
2019-02-28T18:58:16.735Z,93332.44
2019-02-28T19:04:42.249Z,93316.36
2019-02-28T19:07:14.873Z,93300.86
2019-02-28T19:10:18.753Z,93273.59
2019-02-28T19:13:26.866Z,93229.56
2019-02-28T19:16:08.900Z,93222.48
2019-02-28T19:19:19.024Z,93201.14
2019-02-28T19:22:13.154Z,93231.37
2019-02-28T19:25:18.385Z,93194.14
2019-02-28T19:28:02.134Z,93213.80
2019-02-28T19:31:10.301Z,93223.48
2019-02-28T19:33:49.113Z,93212.50
2019-02-28T19:36:30.747Z,93231.37
2019-02-28T19:39:05.817Z,93221.69
2019-02-28T19:41:38.106Z,93220.59
2019-02-28T19:44:25.690Z,93221.60
2019-02-28T19:47:20.257Z,93262.11
2019-02-28T19:50:15.559Z,93275.19
2019-02-28T19:52:59.408Z,93312.26
2019-02-28T19:55:49.214Z,93280.77
2019-02-28T19:58:31.088Z,93295.66
2019-02-28T20:01:08.895Z,93342.72
2019-02-28T20:04:01.609Z,93392.06
2019-02-28T20:06:46.148Z,93396.27
2019-02-28T20:09:23.467Z,93396.27
2019-02-28T20:12:01.928Z,93341.63
2019-02-28T20:14:39.610Z,93321.23
2019-02-28T20:17:21.757Z,93321.95
2019-02-28T20:19:55.698Z,93342.42
2019-02-28T20:22:37.263Z,93318.55
2019-02-28T20:25:14.279Z,93343.72
2019-02-28T20:27:48.507Z,93287.06
2019-02-28T20:30:35.079Z,93316.95
2019-02-28T20:33:22.057Z,93335.92
2019-02-28T20:36:12.312Z,93362.10
2019-02-28T20:39:17.581Z,93409.48
2019-02-28T20:41:54.127Z,93399.66
2019-02-28T20:44:37.753Z,93394.78
2019-02-28T20:47:08.960Z,93397.39
2019-02-28T20:50:01.336Z,93338.81
2019-02-28T20:53:08.425Z,93302.06
2019-02-28T20:55:44.584Z,93215.10
2019-02-28T20:58:23.004Z,93210.70
2019-02-28T21:01:12.992Z,93188.33
2019-02-28T21:07:08.788Z,93078.47
2019-02-28T21:09:58.764Z,93139.05
2019-02-28T21:12:58.250Z,93055.14
2019-02-28T21:19:02.641Z,93007.99
2019-02-28T21:21:24.212Z,93003.01
2019-02-28T21:24:19.886Z,93008.28
2019-02-28T21:26:44.444Z,93030.23
2019-02-28T21:29:16.886Z,92998.03
2019-02-28T21:31:51.886Z,93026.04
2019-02-28T21:34:35.068Z,93064.11
2019-02-28T21:37:21.355Z,93035.00
2019-02-28T21:40:14.983Z,93010.59
2019-02-28T21:43:14.322Z,92995.64
2019-02-28T21:45:55.229Z,93011.89
2019-02-28T21:48:56.944Z,93049.45
2019-02-28T21:52:12.355Z,93080.56
2019-02-28T21:55:03.298Z,93095.77
2019-02-28T21:57:48.173Z,93123.88
2019-02-28T22:00:32.110Z,93172.56
2019-02-28T22:03:24.376Z,93185.73
2019-02-28T22:09:21.943Z,93212.80
2019-02-28T22:14:56.367Z,93190.25
2019-02-28T22:17:25.653Z,93190.25
2019-02-28T22:20:02.555Z,93211.50
2019-02-28T22:22:38.030Z,93250.53
2019-02-28T22:25:33.424Z,93204.12
2019-02-28T22:28:44.368Z,93191.55
2019-02-28T22:31:59.081Z,93154.80
2019-02-28T22:34:56.306Z,93149.31
2019-02-28T22:37:34.589Z,93090.06
2019-02-28T22:40:21.562Z,93077.47
2019-02-28T22:43:13.519Z,92981.78
2019-02-28T22:45:54.175Z,92917.09
2019-02-28T22:49:34.983Z,92878.94
2019-02-28T22:52:12.630Z,92852.64
2019-02-28T22:55:00.777Z,92780.96
2019-02-28T22:58:28.446Z,92797.11
2019-02-28T23:01:05.766Z,92841.09
2019-02-28T23:04:19.879Z,92786.44
2019-02-28T23:06:48.788Z,92727.30
2019-02-28T23:09:55.018Z,92668.69
2019-02-28T23:12:37.240Z,92677.58
2019-02-28T23:15:09.758Z,92705.11
2019-02-28T23:17:54.564Z,92782.84
2019-02-28T23:20:32.192Z,92813.41
2019-02-28T23:23:44.279Z,92840.09
2019-02-28T23:26:45.289Z,92898.84
2019-02-28T23:33:15.980Z,93016.95
2019-02-28T23:36:16.397Z,93012.18
2019-02-28T23:38:59.823Z,93070.09
2019-02-28T23:41:38.133Z,93104.72
2019-02-28T23:44:40.594Z,93145.12
2019-02-28T23:47:39.242Z,93171.56
2019-02-28T23:51:09.921Z,93169.26
2019-02-28T23:54:39.063Z,93175.84
2019-02-28T23:57:15.702Z,93175.05
